Time;durP1;ratioP1;P1;durP2;ratioP2;P2;SDS_P1;SDS_P2;PMS_P1;PMS_P2;Temp;Humidity;BMP_temperature;BMP_pressure;BME280_temperature;BME280_humidity;BME280_pressure;Samples;Min_cycle;Max_cycle;Signal;HPM_P1;HPM_P2
2023/09/18 00:00:53;;;;;;;5.32;3.83;;;22.40;70.60;;;;;;5015080;28;20051;-47
2023/09/18 00:03:24;;;;;;;8.00;3.80;;;22.30;70.50;;;;;;5021467;28;20040;-49
2023/09/18 00:05:52;;;;;;;4.15;3.75;;;22.30;70.50;;;;;;5026506;28;20100;-51
2023/09/18 00:08:22;;;;;;;8.23;4.30;;;22.30;71.10;;;;;;5031226;28;20038;-51
2023/09/18 00:10:54;;;;;;;5.63;3.85;;;22.30;70.50;;;;;;5030199;28;20388;-48
2023/09/18 00:13:23;;;;;;;5.72;4.60;;;22.30;70.60;;;;;;5031401;28;20078;-48
2023/09/18 00:15:53;;;;;;;6.03;3.90;;;22.30;70.60;;;;;;5023977;28;20139;-50
2023/09/18 00:18:25;;;;;;;5.30;3.60;;;22.30;70.70;;;;;;5030012;28;20506;-52
2023/09/18 00:20:52;;;;;;;4.28;3.47;;;22.20;70.60;;;;;;5030239;28;20045;-50
2023/09/18 00:23:20;;;;;;;10.13;4.40;;;22.20;70.60;;;;;;5026137;28;20037;-49
2023/09/18 00:25:46;;;;;;;4.90;4.20;;;22.20;70.70;;;;;;5031222;28;20045;-52
2023/09/18 00:28:13;;;;;;;7.70;4.35;;;22.20;70.80;;;;;;5030247;28;20492;-50
2023/09/18 00:30:47;;;;;;;6.03;4.43;;;22.20;70.80;;;;;;5022164;28;20049;-47
2023/09/18 00:33:16;;;;;;;12.10;5.35;;;22.20;71.20;;;;;;5034634;28;20056;-51
2023/09/18 00:35:50;;;;;;;9.50;4.53;;;22.20;71.00;;;;;;5021670;28;20410;-48
2023/09/18 00:38:17;;;;;;;5.80;4.10;;;22.20;71.40;;;;;;5013593;28;20053;-48
2023/09/18 00:40:45;;;;;;;5.85;4.80;;;22.20;71.20;;;;;;5017322;28;20048;-50
2023/09/18 00:43:12;;;;;;;4.65;4.00;;;22.20;71.30;;;;;;5004215;28;20423;-50
2023/09/18 00:45:43;;;;;;;5.90;4.63;;;22.20;71.40;;;;;;5024119;28;20096;-51
2023/09/18 00:48:12;;;;;;;6.53;4.15;;;22.20;71.50;;;;;;5021758;28;20057;-48
2023/09/18 00:50:40;;;;;;;7.25;4.50;;;22.20;71.40;;;;;;5029888;28;20076;-49
2023/09/18 00:53:10;;;;;;;4.82;4.30;;;22.20;71.40;;;;;;5028107;28;20531;-51
2023/09/18 00:55:38;;;;;;;7.15;4.15;;;22.10;71.40;;;;;;5025660;28;20120;-52
2023/09/18 00:58:22;;;;;;;6.05;4.50;;;22.10;71.50;;;;;;5024030;28;20049;-48
2023/09/18 01:00:52;;;;;;;5.47;4.10;;;22.10;71.40;;;;;;5014586;28;20049;-50
2023/09/18 01:03:25;;;;;;;8.23;4.78;;;22.10;71.30;;;;;;5021929;28;20107;-51
2023/09/18 01:05:53;;;;;;;5.57;4.70;;;22.10;71.60;;;;;;5023251;28;20124;-49
2023/09/18 01:08:24;;;;;;;5.65;4.35;;;22.10;72.00;;;;;;5017823;28;20067;-52
2023/09/18 01:11:10;;;;;;;8.00;4.85;;;22.20;72.10;;;;;;5028844;28;20041;-49
2023/09/18 01:13:51;;;;;;;4.93;4.43;;;22.20;72.50;;;;;;5015728;28;20045;-51
2023/09/18 01:16:45;;;;;;;5.03;4.43;;;22.20;72.40;;;;;;5026740;28;20037;-51
2023/09/18 01:19:14;;;;;;;6.13;4.18;;;22.20;72.70;;;;;;5023275;28;20041;-48
2023/09/18 01:21:47;;;;;;;7.35;4.43;;;22.20;72.40;;;;;;5015495;28;20050;-50
2023/09/18 01:24:13;;;;;;;7.15;4.38;;;22.20;72.70;;;;;;5018879;28;20124;-49
2023/09/18 01:26:40;;;;;;;4.78;4.35;;;22.20;72.70;;;;;;5014555;28;20343;-50
2023/09/18 01:29:07;;;;;;;5.35;4.85;;;22.20;72.90;;;;;;5030441;28;20444;-49
2023/09/18 01:31:35;;;;;;;7.57;4.90;;;22.20;73.10;;;;;;5022024;28;20077;-48
2023/09/18 01:34:02;;;;;;;8.02;4.65;;;22.20;73.20;;;;;;5013108;28;20061;-51
2023/09/18 01:36:31;;;;;;;8.82;4.80;;;22.30;73.40;;;;;;5024512;28;20069;-53
2023/09/18 01:38:58;;;;;;;7.15;4.72;;;22.30;73.60;;;;;;5011939;28;20626;-47
2023/09/18 01:41:24;;;;;;;6.53;4.32;;;22.30;73.70;;;;;;5029369;28;20065;-48
2023/09/18 01:44:07;;;;;;;5.22;4.72;;;22.30;73.80;;;;;;5016486;28;20037;-48
2023/09/18 01:46:37;;;;;;;6.28;4.85;;;22.40;73.80;;;;;;5016210;28;20056;-53
2023/09/18 01:49:06;;;;;;;7.63;4.65;;;22.40;73.90;;;;;;5019389;28;20056;-49
2023/09/18 01:51:33;;;;;;;6.30;4.32;;;22.50;74.10;;;;;;5016000;28;20131;-48
2023/09/18 01:54:00;;;;;;;6.47;4.85;;;22.50;74.20;;;;;;5018201;28;20120;-50
2023/09/18 01:56:28;;;;;;;7.82;5.47;;;22.50;74.10;;;;;;5027462;28;20049;-49
2023/09/18 01:58:55;;;;;;;6.53;4.68;;;22.60;74.30;;;;;;5028457;28;20041;-51
2023/09/18 02:01:25;;;;;;;6.32;4.80;;;22.60;74.20;;;;;;5016454;28;20124;-51
2023/09/18 02:03:52;;;;;;;9.90;5.45;;;22.60;74.30;;;;;;5013886;28;20200;-50
2023/09/18 02:06:39;;;;;;;8.48;4.65;;;22.70;74.30;;;;;;5025477;28;20124;-48
2023/09/18 02:09:10;;;;;;;5.90;5.30;;;22.70;74.10;;;;;;5013144;28;20056;-50
2023/09/18 02:11:42;;;;;;;8.38;4.78;;;22.70;74.10;;;;;;5018983;28;20064;-50
2023/09/18 02:14:12;;;;;;;6.72;4.50;;;22.70;74.20;;;;;;5023284;28;20076;-49
2023/09/18 02:16:44;;;;;;;6.10;4.82;;;22.70;74.10;;;;;;5025247;28;20037;-48
2023/09/18 02:19:16;;;;;;;5.32;4.32;;;22.70;74.00;;;;;;5010668;28;20041;-50
2023/09/18 02:21:48;;;;;;;9.48;5.60;;;22.70;74.10;;;;;;5028060;28;20041;-49
2023/09/18 02:24:21;;;;;;;7.20;5.05;;;22.80;74.30;;;;;;5023731;28;20033;-49
2023/09/18 02:26:50;;;;;;;5.93;4.35;;;22.70;74.20;;;;;;5013164;28;20145;-48
2023/09/18 02:29:24;;;;;;;5.32;4.82;;;22.80;74.20;;;;;;5023817;28;20119;-49
2023/09/18 02:31:53;;;;;;;7.15;4.57;;;22.80;74.30;;;;;;5024817;28;20777;-51
2023/09/18 02:34:24;;;;;;;10.18;5.43;;;22.80;75.00;;;;;;5025176;28;20439;-48
2023/09/18 02:36:54;;;;;;;5.97;4.68;;;22.80;74.30;;;;;;5013895;28;20041;-51
2023/09/18 02:39:21;;;;;;;7.30;4.90;;;22.80;74.50;;;;;;5019560;28;20049;-47
2023/09/18 02:41:49;;;;;;;5.85;5.22;;;22.80;74.40;;;;;;5008827;28;20049;-51
2023/09/18 02:44:16;;;;;;;6.20;5.60;;;22.80;74.40;;;;;;5024421;28;20060;-50
2023/09/18 02:46:45;;;;;;;5.65;4.82;;;22.80;74.30;;;;;;5014002;28;20057;-51
2023/09/18 02:49:14;;;;;;;6.22;5.30;;;22.90;74.20;;;;;;5015297;28;20133;-49
2023/09/18 02:51:44;;;;;;;6.97;5.60;;;22.90;74.10;;;;;;5021809;28;20058;-48
2023/09/18 02:54:14;;;;;;;6.43;5.20;;;22.90;74.10;;;;;;5020185;28;20048;-50
2023/09/18 02:56:41;;;;;;;11.55;6.53;;;22.90;74.00;;;;;;5018690;28;20045;-50
2023/09/18 02:59:08;;;;;;;6.60;4.80;;;23.00;74.00;;;;;;5045455;28;20411;-48
2023/09/18 03:01:35;;;;;;;8.60;5.38;;;23.00;73.80;;;;;;5021947;28;20077;-49
2023/09/18 03:04:02;;;;;;;6.55;4.78;;;23.00;73.70;;;;;;5027595;28;20404;-49
2023/09/18 03:06:29;;;;;;;7.20;4.93;;;23.00;73.60;;;;;;5021094;28;20060;-50
2023/09/18 03:08:58;;;;;;;8.63;4.90;;;23.00;73.50;;;;;;5029147;28;20077;-48
2023/09/18 03:11:27;;;;;;;6.90;5.10;;;23.00;73.30;;;;;;5021354;28;20099;-53
2023/09/18 03:13:54;;;;;;;7.15;4.95;;;23.00;73.10;;;;;;5011668;28;20388;-49
2023/09/18 03:16:24;;;;;;;7.28;4.75;;;23.10;73.10;;;;;;5028882;28;20052;-48
2023/09/18 03:18:51;;;;;;;11.52;4.88;;;23.00;72.80;;;;;;5014791;28;20042;-48
2023/09/18 03:21:18;;;;;;;5.40;4.85;;;23.10;72.80;;;;;;5021524;28;20136;-48
2023/09/18 03:23:47;;;;;;;6.13;4.38;;;23.10;72.70;;;;;;5024827;28;20120;-51
2023/09/18 03:26:17;;;;;;;5.72;4.00;;;23.10;72.30;;;;;;5030904;28;20033;-50
2023/09/18 03:28:46;;;;;;;7.38;4.65;;;23.10;72.30;;;;;;5019739;28;20045;-52
2023/09/18 03:31:15;;;;;;;4.95;4.00;;;23.10;72.10;;;;;;5031703;28;20033;-48
2023/09/18 03:33:42;;;;;;;6.72;3.75;;;23.20;72.10;;;;;;5021391;28;20944;-50
2023/09/18 03:36:11;;;;;;;5.47;3.83;;;23.20;72.30;;;;;;5024960;28;20100;-49
2023/09/18 03:38:38;;;;;;;7.65;3.88;;;23.20;71.80;;;;;;5019950;28;20045;-50
2023/09/18 03:41:08;;;;;;;6.53;3.80;;;23.20;71.70;;;;;;5013600;28;20555;-51
2023/09/18 03:43:37;;;;;;;4.40;3.92;;;23.20;71.90;;;;;;5024320;28;20054;-49
2023/09/18 03:46:09;;;;;;;6.32;3.83;;;23.20;71.80;;;;;;5030898;28;20092;-49
2023/09/18 03:48:47;;;;;;;8.75;3.60;;;23.30;72.00;;;;;;5018482;28;20140;-48
2023/09/18 03:51:19;;;;;;;6.15;3.92;;;23.30;71.50;;;;;;5021662;28;20045;-49
2023/09/18 03:53:46;;;;;;;4.78;3.75;;;23.30;71.50;;;;;;5017581;28;20072;-53
2023/09/18 03:56:13;;;;;;;9.45;4.47;;;23.30;71.50;;;;;;5020338;28;20115;-49
2023/09/18 03:58:39;;;;;;;8.15;3.65;;;23.30;71.50;;;;;;5026954;28;20052;-49
2023/09/18 04:01:07;;;;;;;7.47;4.07;;;23.30;71.30;;;;;;5030853;28;20050;-51
2023/09/18 04:03:35;;;;;;;5.68;3.90;;;23.30;71.40;;;;;;5018683;28;20037;-51
2023/09/18 04:06:04;;;;;;;6.18;3.72;;;23.30;71.40;;;;;;5028234;28;20069;-49
2023/09/18 04:08:33;;;;;;;7.80;4.15;;;23.30;71.50;;;;;;5021463;28;20470;-53
2023/09/18 04:11:00;;;;;;;8.10;4.00;;;23.30;71.30;;;;;;5020612;28;20042;-48
2023/09/18 04:13:27;;;;;;;5.47;3.58;;;23.30;71.40;;;;;;5028347;28;20045;-48
2023/09/18 04:15:57;;;;;;;7.35;3.78;;;23.20;71.50;;;;;;5028508;28;20041;-49
2023/09/18 04:18:24;;;;;;;5.75;3.75;;;23.20;71.70;;;;;;5020949;28;20068;-51
2023/09/18 04:20:57;;;;;;;5.88;3.15;;;23.20;71.70;;;;;;5012505;28;20041;-47
2023/09/18 04:23:29;;;;;;;6.95;3.60;;;23.10;71.80;;;;;;5027912;28;20037;-52
2023/09/18 04:25:58;;;;;;;6.88;3.75;;;23.10;72.30;;;;;;5019912;28;20593;-54
2023/09/18 04:28:24;;;;;;;6.32;4.07;;;23.10;72.40;;;;;;5030117;28;20029;-50
2023/09/18 04:30:52;;;;;;;7.53;4.32;;;23.00;72.40;;;;;;5020437;28;20108;-49
2023/09/18 04:33:21;;;;;;;5.85;3.47;;;23.00;72.60;;;;;;5026371;28;20120;-48
2023/09/18 04:35:48;;;;;;;5.03;3.40;;;23.00;72.60;;;;;;5022195;28;20463;-47
2023/09/18 04:38:19;;;;;;;6.88;3.13;;;23.00;72.60;;;;;;5017361;28;20052;-49
2023/09/18 04:40:46;;;;;;;4.18;3.67;;;23.00;72.70;;;;;;5024084;28;20041;-51
2023/09/18 04:43:13;;;;;;;5.80;3.67;;;22.90;72.60;;;;;;5013912;28;20128;-48
2023/09/18 04:45:42;;;;;;;9.50;3.95;;;22.90;72.80;;;;;;5021751;28;20049;-50
2023/09/18 04:48:14;;;;;;;6.90;4.88;;;22.90;72.90;;;;;;5028096;28;20408;-49
2023/09/18 04:50:41;;;;;;;6.07;3.83;;;22.80;72.90;;;;;;5026408;28;20045;-47
2023/09/18 04:53:08;;;;;;;5.88;3.92;;;22.80;73.00;;;;;;5021671;28;20506;-53
2023/09/18 04:55:35;;;;;;;5.05;3.00;;;22.80;73.00;;;;;;5024429;28;20558;-49
2023/09/18 04:58:03;;;;;;;6.10;3.22;;;22.60;73.00;;;;;;5023205;28;20056;-51
2023/09/18 05:00:31;;;;;;;5.38;3.30;;;22.70;73.20;;;;;;5018859;28;20042;-48
2023/09/18 05:03:01;;;;;;;5.65;3.08;;;22.70;73.30;;;;;;5013104;28;20123;-49
2023/09/18 05:05:29;;;;;;;6.18;3.38;;;22.70;73.30;;;;;;5024407;28;20049;-47
2023/09/18 05:07:56;;;;;;;5.55;3.30;;;22.60;73.20;;;;;;5015652;28;20045;-50
2023/09/18 05:10:23;;;;;;;7.30;3.20;;;22.60;73.40;;;;;;5019199;28;20045;-49
2023/09/18 05:12:50;;;;;;;5.00;3.90;;;22.60;73.40;;;;;;5027180;28;20129;-53
2023/09/18 05:15:17;;;;;;;5.57;2.95;;;22.60;73.40;;;;;;5027293;28;20045;-49
2023/09/18 05:17:47;;;;;;;4.72;3.20;;;22.60;73.40;;;;;;5021545;28;20084;-47
2023/09/18 05:20:16;;;;;;;3.47;2.67;;;22.60;73.50;;;;;;5017498;28;20128;-50
2023/09/18 05:22:44;;;;;;;6.60;3.20;;;22.60;73.70;;;;;;5027509;28;20096;-49
2023/09/18 05:25:14;;;;;;;6.95;2.85;;;22.50;73.60;;;;;;5023661;28;20096;-47
2023/09/18 05:27:44;;;;;;;5.80;3.38;;;22.50;73.50;;;;;;5022387;28;20038;-49
2023/09/18 05:30:16;;;;;;;7.55;3.13;;;22.50;73.40;;;;;;5024624;28;20778;-49
2023/09/18 05:32:43;;;;;;;7.13;3.45;;;22.50;73.60;;;;;;5023498;28;20114;-50
2023/09/18 05:35:12;;;;;;;5.65;3.10;;;22.50;73.50;;;;;;5024048;28;20045;-52
2023/09/18 05:37:40;;;;;;;4.07;2.88;;;22.50;73.30;;;;;;5023203;28;20045;-50
2023/09/18 05:40:10;;;;;;;5.68;2.72;;;22.50;74.00;;;;;;5022966;28;20613;-49
2023/09/18 05:42:39;;;;;;;4.63;3.05;;;22.50;73.50;;;;;;5023680;28;20585;-49
2023/09/18 05:45:06;;;;;;;5.32;3.00;;;22.50;73.40;;;;;;5023538;28;20088;-50
2023/09/18 05:47:33;;;;;;;6.03;2.95;;;22.40;73.40;;;;;;5024214;28;20053;-49
2023/09/18 05:50:03;;;;;;;8.02;2.65;;;22.40;73.40;;;;;;5024869;28;20052;-49
2023/09/18 05:52:30;;;;;;;5.05;2.67;;;22.40;73.30;;;;;;5024989;28;20041;-52
2023/09/18 05:54:57;;;;;;;4.82;2.13;;;22.50;73.20;;;;;;5020404;28;20129;-52
2023/09/18 05:57:23;;;;;;;2.65;2.20;;;22.40;73.00;;;;;;5028396;28;20072;-48
2023/09/18 05:59:50;;;;;;;4.05;1.92;;;22.40;73.20;;;;;;5028652;28;20099;-49
2023/09/18 06:02:17;;;;;;;3.75;1.67;;;22.40;73.00;;;;;;5027646;28;20065;-52
2023/09/18 06:04:44;;;;;;;3.28;2.17;;;22.50;72.90;;;;;;5023284;28;20042;-48
2023/09/18 06:07:12;;;;;;;3.95;2.20;;;22.50;73.00;;;;;;5025407;28;20096;-48
2023/09/18 06:09:39;;;;;;;3.67;1.58;;;22.50;72.90;;;;;;5021443;28;20041;-49
2023/09/18 06:12:06;;;;;;;1.90;1.52;;;22.50;72.70;;;;;;5021297;28;20124;-48
2023/09/18 06:14:37;;;;;;;3.25;1.67;;;22.50;72.60;;;;;;5025412;28;20132;-49
2023/09/18 06:17:05;;;;;;;4.27;1.70;;;22.50;72.70;;;;;;5022516;28;20124;-49
2023/09/18 06:19:33;;;;;;;2.55;1.45;;;22.50;72.40;;;;;;5022179;28;20296;-51
2023/09/18 06:22:00;;;;;;;2.53;1.13;;;22.50;72.20;;;;;;5025445;28;20029;-50
2023/09/18 06:24:27;;;;;;;4.78;1.50;;;22.50;72.10;;;;;;5026107;28;20539;-49
2023/09/18 06:26:54;;;;;;;1.92;1.83;;;22.60;72.00;;;;;;5025045;28;20113;-48
2023/09/18 06:29:21;;;;;;;5.63;1.40;;;22.60;71.90;;;;;;5027721;28;20053;-50
2023/09/18 06:31:49;;;;;;;1.92;1.52;;;22.60;71.90;;;;;;5026499;28;20145;-47
2023/09/18 06:34:16;;;;;;;1.65;1.45;;;22.60;71.80;;;;;;5024395;28;20080;-52
2023/09/18 06:36:44;;;;;;;2.28;1.30;;;22.60;71.80;;;;;;5026683;28;20116;-51
2023/09/18 06:39:11;;;;;;;2.50;1.30;;;22.60;71.70;;;;;;5028526;28;20045;-51
2023/09/18 06:41:38;;;;;;;3.78;1.60;;;22.70;71.80;;;;;;5026933;28;20055;-52
2023/09/18 06:44:05;;;;;;;3.50;1.35;;;22.70;71.70;;;;;;5024155;28;20445;-50
2023/09/18 06:46:32;;;;;;;2.95;1.30;;;22.70;71.70;;;;;;5034267;28;20048;-50
2023/09/18 06:48:59;;;;;;;1.50;1.35;;;22.80;71.40;;;;;;5030086;28;20045;-52
2023/09/18 06:51:30;;;;;;;2.60;1.30;;;22.80;71.30;;;;;;5027892;28;20129;-51
2023/09/18 06:54:02;;;;;;;2.25;1.10;;;22.80;71.30;;;;;;5030428;28;20045;-54
2023/09/18 06:56:29;;;;;;;2.53;2.00;;;22.90;71.20;;;;;;5027640;28;20148;-52
2023/09/18 06:58:56;;;;;;;4.40;1.48;;;22.90;71.00;;;;;;5030828;28;20052;-50
2023/09/18 07:01:24;;;;;;;3.08;1.20;;;22.90;70.90;;;;;;5031867;28;20156;-47
2023/09/18 07:03:51;;;;;;;3.85;1.17;;;23.00;70.70;;;;;;5030117;28;20034;-50
2023/09/18 07:06:21;;;;;;;4.95;1.50;;;23.00;70.40;;;;;;5028927;28;20120;-50
2023/09/18 07:08:51;;;;;;;2.47;1.00;;;23.00;70.40;;;;;;5028867;28;20096;-52
2023/09/18 07:11:18;;;;;;;2.53;1.58;;;23.00;70.20;;;;;;5031401;28;20049;-51
2023/09/18 07:13:44;;;;;;;4.07;1.20;;;23.10;70.00;;;;;;5034055;28;20052;-47
2023/09/18 07:16:11;;;;;;;2.97;0.98;;;23.10;70.00;;;;;;5016483;28;20049;-49
2023/09/18 07:18:38;;;;;;;2.78;1.20;;;23.10;69.90;;;;;;5029041;28;20065;-50
2023/09/18 07:21:05;;;;;;;2.88;1.67;;;23.10;70.10;;;;;;5031982;28;20073;-52
2023/09/18 07:23:35;;;;;;;2.95;1.48;;;23.10;69.90;;;;;;5021205;28;20115;-52
2023/09/18 07:26:01;;;;;;;5.38;1.27;;;23.10;69.70;;;;;;5031696;28;20040;-48
2023/09/18 07:28:28;;;;;;;5.25;1.58;;;23.10;69.70;;;;;;5027513;28;20033;-51
2023/09/18 07:30:55;;;;;;;2.05;1.40;;;23.20;69.20;;;;;;5015648;28;20076;-49
2023/09/18 07:33:22;;;;;;;1.92;1.40;;;23.20;69.30;;;;;;5014070;28;20045;-48
2023/09/18 07:35:53;;;;;;;2.58;1.38;;;23.20;69.30;;;;;;5027666;28;20045;-49
2023/09/18 07:38:20;;;;;;;2.58;1.05;;;23.20;69.00;;;;;;5032092;28;20077;-50
2023/09/18 07:40:47;;;;;;;1.90;1.30;;;23.20;69.00;;;;;;5032437;28;20380;-49
2023/09/18 07:43:14;;;;;;;2.92;1.20;;;23.20;69.20;;;;;;5030195;28;20045;-52
2023/09/18 07:45:40;;;;;;;3.35;1.20;;;23.20;68.80;;;;;;5030765;28;20664;-50
2023/09/18 07:48:08;;;;;;;1.75;1.30;;;23.30;69.00;;;;;;5051244;23;20055;-49
2023/09/18 07:50:35;;;;;;;2.40;1.35;;;23.20;68.90;;;;;;5050178;28;20127;-46
2023/09/18 07:53:02;;;;;;;1.63;1.17;;;23.30;68.80;;;;;;5049927;28;20646;-46
2023/09/18 07:55:29;;;;;;;1.77;1.20;;;23.30;68.90;;;;;;5048363;28;20104;-47
2023/09/18 07:57:59;;;;;;;4.25;1.83;;;23.30;69.00;;;;;;5041694;28;20051;-48
2023/09/18 08:00:26;;;;;;;2.72;1.92;;;23.40;69.00;;;;;;5026527;28;20037;-47
2023/09/18 08:02:58;;;;;;;3.33;1.20;;;23.40;68.90;;;;;;5030080;28;20080;-48
2023/09/18 08:05:27;;;;;;;3.42;1.13;;;23.40;68.60;;;;;;5026740;28;20088;-49
2023/09/18 08:07:59;;;;;;;6.65;1.23;;;23.50;68.30;;;;;;5027206;28;20041;-47
2023/09/18 08:10:26;;;;;;;3.22;1.23;;;23.50;68.10;;;;;;5022062;28;20041;-50
2023/09/18 08:12:53;;;;;;;1.90;1.67;;;23.60;68.00;;;;;;5025399;28;20476;-52
2023/09/18 08:15:22;;;;;;;2.80;1.10;;;23.50;67.60;;;;;;5025559;28;20087;-47
2023/09/18 08:17:49;;;;;;;2.00;1.27;;;23.50;67.80;;;;;;5026258;28;20081;-47
2023/09/18 08:20:17;;;;;;;3.25;1.52;;;23.60;67.60;;;;;;5032131;28;20045;-51
2023/09/18 08:22:44;;;;;;;2.08;0.98;;;23.60;67.50;;;;;;5021120;28;20037;-49
2023/09/18 08:25:12;;;;;;;2.17;0.98;;;23.60;67.50;;;;;;5020702;28;20061;-49
2023/09/18 08:27:43;;;;;;;2.78;1.20;;;23.70;67.60;;;;;;5024725;28;20526;-52
2023/09/18 08:30:12;;;;;;;2.10;1.15;;;23.70;67.60;;;;;;5029642;28;20047;-52
2023/09/18 08:32:40;;;;;;;2.70;1.15;;;23.70;67.30;;;;;;5021365;28;20049;-52
2023/09/18 08:35:08;;;;;;;3.10;1.27;;;23.80;67.20;;;;;;5029799;28;20042;-50
2023/09/18 08:37:35;;;;;;;3.15;0.98;;;23.80;66.90;;;;;;5028437;28;20065;-51
2023/09/18 08:40:09;;;;;;;2.95;1.13;;;23.80;66.80;;;;;;5024514;28;20096;-51
2023/09/18 08:42:39;;;;;;;2.33;1.42;;;23.80;66.80;;;;;;5029872;28;20037;-50
2023/09/18 08:45:18;;;;;;;4.88;1.33;;;23.80;66.60;;;;;;5024969;28;20037;-48
2023/09/18 08:47:46;;;;;;;2.85;1.17;;;23.90;66.50;;;;;;5019247;28;20045;-50
2023/09/18 08:50:15;;;;;;;2.47;1.20;;;23.90;66.40;;;;;;5022821;28;20057;-50
2023/09/18 08:52:42;;;;;;;1.70;1.02;;;24.00;66.30;;;;;;5029715;28;20431;-49
2023/09/18 08:55:09;;;;;;;2.40;1.45;;;24.00;66.00;;;;;;5022327;28;20613;-48
2023/09/18 08:57:38;;;;;;;3.17;1.00;;;24.10;66.00;;;;;;5024779;28;20054;-48
2023/09/18 09:00:08;;;;;;;4.38;1.10;;;24.10;65.90;;;;;;5021095;28;20124;-48
2023/09/18 09:02:35;;;;;;;1.20;1.10;;;24.10;65.50;;;;;;5030273;28;20124;-49
2023/09/18 09:05:02;;;;;;;4.55;1.40;;;24.20;65.10;;;;;;5033636;28;20877;-50
2023/09/18 09:07:31;;;;;;;2.13;1.10;;;24.20;64.90;;;;;;5012676;28;20407;-52
2023/09/18 09:09:58;;;;;;;2.38;0.98;;;24.30;65.20;;;;;;5024921;28;20073;-48
2023/09/18 09:13:01;;;;;;;2.05;1.10;;;24.30;64.60;;;;;;5022761;28;20041;-51
2023/09/18 09:15:32;;;;;;;2.58;1.20;;;24.30;64.50;;;;;;4982494;28;20064;-48
2023/09/18 09:18:07;;;;;;;2.88;1.42;;;24.30;64.70;;;;;;5014989;28;20140;-49
2023/09/18 09:20:39;;;;;;;1.90;1.20;;;24.20;64.20;;;;;;5029091;28;20052;-49
2023/09/18 09:23:08;;;;;;;1.73;1.00;;;24.20;64.30;;;;;;5012374;28;20044;-49
2023/09/18 09:25:36;;;;;;;1.35;1.10;;;24.20;64.60;;;;;;5025320;28;20069;-49
2023/09/18 09:28:04;;;;;;;3.53;1.33;;;24.20;64.50;;;;;;5021438;28;20049;-51
2023/09/18 09:30:33;;;;;;;4.15;1.70;;;24.10;64.20;;;;;;5021120;28;20042;-51
2023/09/18 09:33:02;;;;;;;1.83;1.23;;;24.10;64.00;;;;;;5029846;28;20080;-52
2023/09/18 09:35:40;;;;;;;2.40;1.50;;;24.10;63.90;;;;;;5023615;28;20049;-47
2023/09/18 09:38:09;;;;;;;2.75;1.20;;;24.00;64.10;;;;;;5025228;28;20041;-48
2023/09/18 09:40:43;;;;;;;2.70;0.90;;;24.00;64.30;;;;;;5016347;28;20054;-47
2023/09/18 09:43:14;;;;;;;4.78;1.50;;;24.00;64.30;;;;;;5018579;28;20535;-47
2023/09/18 09:45:42;;;;;;;2.90;2.20;;;23.90;64.70;;;;;;5017382;28;20064;-51
2023/09/18 09:48:09;;;;;;;1.95;1.73;;;23.90;64.70;;;;;;5022640;28;20048;-52
2023/09/18 09:50:48;;;;;;;1.77;1.33;;;23.90;64.70;;;;;;5017338;28;20076;-52
2023/09/18 09:53:15;;;;;;;1.77;1.20;;;23.90;65.00;;;;;;5026249;28;20049;-50
2023/09/18 09:55:42;;;;;;;1.52;1.15;;;23.90;64.80;;;;;;5027338;28;20459;-52
2023/09/18 09:58:14;;;;;;;2.30;1.70;;;23.90;65.20;;;;;;5031740;28;20503;-52
2023/09/18 10:00:51;;;;;;;1.52;1.20;;;23.90;65.20;;;;;;5025622;28;20065;-47
2023/09/18 10:03:20;;;;;;;1.85;1.25;;;24.00;64.90;;;;;;5022393;28;20117;-51
2023/09/18 10:05:50;;;;;;;2.28;1.35;;;24.10;65.50;;;;;;5017516;28;20046;-48
2023/09/18 10:08:21;;;;;;;2.30;1.33;;;24.20;65.10;;;;;;5010006;28;20089;-49
2023/09/18 10:10:52;;;;;;;1.88;1.45;;;24.30;65.00;;;;;;5029016;28;20047;-48
2023/09/18 10:13:47;;;;;;;2.03;1.40;;;24.50;64.10;;;;;;5028715;28;20033;-50
2023/09/18 10:16:20;;;;;;;3.30;1.58;;;24.60;63.30;;;;;;5031321;28;20069;-47
2023/09/18 10:19:03;;;;;;;2.72;1.63;;;24.70;63.00;;;;;;5025970;28;20064;-49
2023/09/18 10:21:41;;;;;;;2.35;1.38;;;24.70;63.00;;;;;;5021981;28;20088;-50
2023/09/18 10:24:30;;;;;;;2.47;1.45;;;24.80;62.80;;;;;;5025687;28;20049;-51
2023/09/18 10:26:59;;;;;;;2.38;1.20;;;24.90;62.60;;;;;;5017322;28;20084;-47
2023/09/18 10:29:26;;;;;;;2.53;1.50;;;24.90;62.70;;;;;;5023708;28;20438;-52
2023/09/18 10:31:54;;;;;;;1.70;1.08;;;24.90;62.30;;;;;;5028562;28;20045;-49
2023/09/18 10:34:23;;;;;;;2.38;1.45;;;25.00;62.50;;;;;;5024984;28;20108;-48
2023/09/18 10:36:52;;;;;;;2.40;1.48;;;25.00;61.70;;;;;;5018011;28;20836;-52
2023/09/18 10:39:23;;;;;;;3.33;1.20;;;25.10;61.70;;;;;;5029868;28;20045;-50
2023/09/18 10:41:55;;;;;;;4.10;2.42;;;25.10;62.20;;;;;;5026776;28;20076;-49
2023/09/18 10:44:22;;;;;;;3.50;1.40;;;25.20;62.00;;;;;;5027174;28;20037;-50
2023/09/18 10:46:55;;;;;;;1.67;1.48;;;25.30;62.40;;;;;;5013086;28;20040;-50
2023/09/18 10:49:22;;;;;;;1.70;1.50;;;25.40;61.70;;;;;;5017464;28;20080;-49
2023/09/18 10:51:54;;;;;;;5.25;1.52;;;25.50;61.70;;;;;;5021668;28;20041;-52
2023/09/18 10:54:25;;;;;;;4.53;1.85;;;25.60;61.40;;;;;;5023755;28;20526;-48
2023/09/18 10:56:52;;;;;;;1.90;1.60;;;25.80;60.80;;;;;;5022415;28;20100;-51
2023/09/18 10:59:20;;;;;;;2.58;1.80;;;25.90;60.90;;;;;;5024220;28;20045;-51
2023/09/18 11:01:50;;;;;;;2.35;1.30;;;26.00;60.80;;;;;;5028197;28;20144;-51
2023/09/18 11:04:21;;;;;;;2.25;1.63;;;26.00;60.10;;;;;;5022169;28;20172;-51
2023/09/18 11:06:54;;;;;;;3.97;2.10;;;26.10;59.40;;;;;;5023040;28;20052;-52
2023/09/18 11:09:25;;;;;;;1.77;1.23;;;26.20;59.40;;;;;;5032087;28;20042;-49
2023/09/18 11:12:11;;;;;;;2.58;1.50;;;26.30;58.50;;;;;;5032196;28;20132;-51
2023/09/18 11:14:57;;;;;;;2.03;1.67;;;26.20;58.20;;;;;;5029699;28;20091;-52
2023/09/18 11:17:33;;;;;;;4.45;1.70;;;26.30;58.40;;;;;;5024407;28;20037;-52
2023/09/18 11:20:18;;;;;;;1.80;1.25;;;26.30;57.70;;;;;;5032204;28;20509;-49
2023/09/18 11:22:58;;;;;;;3.53;1.45;;;26.30;57.40;;;;;;5021922;28;20033;-52
2023/09/18 11:25:34;;;;;;;2.88;1.27;;;26.40;58.10;;;;;;5026871;28;20049;-47
2023/09/18 11:28:03;;;;;;;2.10;1.60;;;26.40;57.70;;;;;;5027598;28;20096;-52
2023/09/18 11:30:30;;;;;;;2.55;1.55;;;26.50;57.60;;;;;;5028535;28;20124;-46
2023/09/18 11:32:59;;;;;;;3.40;1.52;;;26.50;57.70;;;;;;5025759;28;20088;-51
2023/09/18 11:35:27;;;;;;;2.47;1.40;;;26.50;57.00;;;;;;5024321;28;20037;-48
2023/09/18 11:38:07;;;;;;;1.42;1.08;;;26.50;57.50;;;;;;5030492;28;20406;-51
2023/09/18 11:40:38;;;;;;;4.32;1.90;;;26.60;57.60;;;;;;5031512;28;20070;-49
2023/09/18 11:43:35;;;;;;;4.68;1.60;;;26.60;56.20;;;;;;5030006;28;20045;-49
2023/09/18 11:46:03;;;;;;;3.70;1.95;;;26.70;56.30;;;;;;5020367;28;20129;-51
2023/09/18 11:48:33;;;;;;;3.38;1.50;;;26.70;56.60;;;;;;5032055;28;20042;-52
2023/09/18 11:51:05;;;;;;;1.33;1.20;;;26.70;56.60;;;;;;5029313;28;20120;-51
2023/09/18 11:53:34;;;;;;;1.98;1.55;;;26.80;56.70;;;;;;5025164;28;20069;-52
2023/09/18 11:56:03;;;;;;;2.35;1.50;;;26.90;57.00;;;;;;5028648;28;20128;-49
2023/09/18 11:58:30;;;;;;;2.38;1.80;;;26.90;55.40;;;;;;5031428;28;20045;-51
2023/09/18 12:00:57;;;;;;;1.67;1.50;;;27.00;56.00;;;;;;5031101;28;20092;-51
2023/09/18 12:03:27;;;;;;;2.13;1.60;;;27.10;55.90;;;;;;5031934;28;20470;-50
2023/09/18 12:06:08;;;;;;;1.55;1.33;;;27.20;55.80;;;;;;5021405;28;20034;-49
2023/09/18 12:08:35;;;;;;;2.15;1.17;;;27.30;54.80;;;;;;5029209;28;20096;-52
2023/09/18 12:11:05;;;;;;;2.10;1.30;;;27.30;55.30;;;;;;5031115;28;21347;-52
2023/09/18 12:13:32;;;;;;;3.30;1.35;;;27.30;55.20;;;;;;5023134;28;20046;-49
2023/09/18 12:16:05;;;;;;;3.03;1.42;;;27.40;54.90;;;;;;5031431;28;20037;-51
2023/09/18 12:18:37;;;;;;;4.20;1.30;;;27.40;54.30;;;;;;5029498;28;20048;-51
2023/09/18 12:21:07;;;;;;;1.40;1.05;;;27.50;53.70;;;;;;5024886;28;20129;-52
2023/09/18 12:23:42;;;;;;;2.35;1.33;;;27.60;53.10;;;;;;5023834;28;20088;-53
2023/09/18 12:26:13;;;;;;;2.35;1.33;;;27.60;52.90;;;;;;5027708;28;20037;-48
2023/09/18 12:28:41;;;;;;;1.20;1.10;;;27.80;52.80;;;;;;5025660;28;20038;-51
2023/09/18 12:31:15;;;;;;;3.10;1.52;;;27.80;53.20;;;;;;5023556;28;20415;-49
2023/09/18 12:33:49;;;;;;;1.50;1.38;;;27.90;52.10;;;;;;5027725;28;20412;-51
2023/09/18 12:36:20;;;;;;;1.90;1.10;;;28.00;52.90;;;;;;5023277;28;21245;-51
2023/09/18 12:39:00;;;;;;;2.45;1.20;;;28.10;52.20;;;;;;5025436;28;20056;-52
2023/09/18 12:41:27;;;;;;;1.67;1.48;;;28.10;52.20;;;;;;5028712;28;20051;-51
2023/09/18 12:43:57;;;;;;;1.80;1.10;;;28.20;52.20;;;;;;5031804;28;20095;-52
2023/09/18 12:46:24;;;;;;;1.55;1.20;;;28.30;53.00;;;;;;5026794;28;20496;-49
2023/09/18 12:48:51;;;;;;;2.58;1.27;;;28.30;51.80;;;;;;5030166;28;20037;-52
2023/09/18 12:51:22;;;;;;;1.50;0.95;;;28.40;51.30;;;;;;5026127;28;20045;-50
2023/09/18 12:54:00;;;;;;;1.92;1.27;;;28.50;51.00;;;;;;5027651;28;20042;-52
2023/09/18 12:56:27;;;;;;;2.28;1.23;;;28.50;50.60;;;;;;5029391;28;20049;-52
2023/09/18 12:58:58;;;;;;;2.85;1.05;;;28.50;51.70;;;;;;5029573;28;20037;-52